sensor_id;sensor_type;location;lat;lon;timestamp;pressure;altitude;pressure_sealevel;temperature;humidity
11448;BME280;43755;49.736;8.734;2023-05-24T00:00:34;98301.25;;;9.26;100.00
11448;BME280;43755;49.736;8.734;2023-05-24T00:02:36;98301.22;;;9.27;100.00
11448;BME280;43755;49.736;8.734;2023-05-24T00:04:40;98300.38;;;9.25;100.00
11448;BME280;43755;49.736;8.734;2023-05-24T00:06:44;98302.13;;;9.26;100.00
11448;BME280;43755;49.736;8.734;2023-05-24T00:08:47;98301.44;;;9.20;100.00
11448;BME280;43755;49.736;8.734;2023-05-24T00:10:48;98305.16;;;9.14;100.00
11448;BME280;43755;49.736;8.734;2023-05-24T00:12:50;98301.81;;;9.09;100.00
11448;BME280;43755;49.736;8.734;2023-05-24T00:14:53;98301.94;;;9.04;100.00
11448;BME280;43755;49.736;8.734;2023-05-24T00:16:54;98307.22;;;9.04;100.00
11448;BME280;43755;49.736;8.734;2023-05-24T00:18:56;98301.19;;;9.01;100.00
11448;BME280;43755;49.736;8.734;2023-05-24T00:20:58;98304.94;;;8.94;100.00
11448;BME280;43755;49.736;8.734;2023-05-24T00:22:59;98292.69;;;8.91;100.00
11448;BME280;43755;49.736;8.734;2023-05-24T00:25:01;98301.81;;;8.81;100.00
11448;BME280;43755;49.736;8.734;2023-05-24T00:27:02;98301.25;;;8.72;100.00
11448;BME280;43755;49.736;8.734;2023-05-24T00:29:04;98290.41;;;8.81;100.00
11448;BME280;43755;49.736;8.734;2023-05-24T00:31:07;98296.38;;;8.86;100.00
11448;BME280;43755;49.736;8.734;2023-05-24T00:33:09;98292.16;;;8.80;100.00
11448;BME280;43755;49.736;8.734;2023-05-24T00:35:10;98288.69;;;8.78;100.00
11448;BME280;43755;49.736;8.734;2023-05-24T00:37:11;98275.59;;;8.77;100.00
11448;BME280;43755;49.736;8.734;2023-05-24T00:39:13;98277.41;;;8.75;100.00
11448;BME280;43755;49.736;8.734;2023-05-24T00:41:14;98275.97;;;8.65;100.00
11448;BME280;43755;49.736;8.734;2023-05-24T00:43:16;98280.41;;;8.62;100.00
11448;BME280;43755;49.736;8.734;2023-05-24T00:45:18;98276.31;;;8.52;100.00
11448;BME280;43755;49.736;8.734;2023-05-24T00:47:21;98270.53;;;8.41;100.00
11448;BME280;43755;49.736;8.734;2023-05-24T00:49:23;98272.50;;;8.33;100.00
11448;BME280;43755;49.736;8.734;2023-05-24T00:51:26;98265.53;;;8.31;100.00
11448;BME280;43755;49.736;8.734;2023-05-24T00:53:27;98263.88;;;8.27;100.00
11448;BME280;43755;49.736;8.734;2023-05-24T00:55:29;98264.78;;;8.26;100.00
11448;BME280;43755;49.736;8.734;2023-05-24T00:57:31;98266.53;;;8.25;100.00
11448;BME280;43755;49.736;8.734;2023-05-24T00:59:32;98268.56;;;8.17;100.00
11448;BME280;43755;49.736;8.734;2023-05-24T01:01:34;98267.00;;;8.10;100.00
11448;BME280;43755;49.736;8.734;2023-05-24T01:03:37;98268.03;;;8.04;100.00
11448;BME280;43755;49.736;8.734;2023-05-24T01:05:39;98278.59;;;8.04;100.00
11448;BME280;43755;49.736;8.734;2023-05-24T01:07:50;98274.44;;;7.96;100.00
11448;BME280;43755;49.736;8.734;2023-05-24T01:10:02;98276.31;;;7.91;100.00
11448;BME280;43755;49.736;8.734;2023-05-24T01:12:14;98278.03;;;7.93;100.00
11448;BME280;43755;49.736;8.734;2023-05-24T01:14:25;98274.59;;;7.90;100.00
11448;BME280;43755;49.736;8.734;2023-05-24T01:16:36;98273.75;;;7.89;100.00
11448;BME280;43755;49.736;8.734;2023-05-24T01:18:51;98286.16;;;7.84;100.00
11448;BME280;43755;49.736;8.734;2023-05-24T01:20:59;98290.56;;;7.83;100.00
11448;BME280;43755;49.736;8.734;2023-05-24T01:23:15;98282.59;;;7.87;100.00
11448;BME280;43755;49.736;8.734;2023-05-24T01:25:28;98279.97;;;7.87;100.00
11448;BME280;43755;49.736;8.734;2023-05-24T01:27:39;98286.06;;;7.89;100.00
11448;BME280;43755;49.736;8.734;2023-05-24T01:29:41;98286.97;;;7.88;100.00
11448;BME280;43755;49.736;8.734;2023-05-24T01:31:43;98284.34;;;7.88;100.00
11448;BME280;43755;49.736;8.734;2023-05-24T01:33:44;98282.56;;;7.88;100.00
11448;BME280;43755;49.736;8.734;2023-05-24T01:35:46;98284.38;;;7.86;100.00
11448;BME280;43755;49.736;8.734;2023-05-24T01:37:47;98273.75;;;7.89;100.00
11448;BME280;43755;49.736;8.734;2023-05-24T01:39:48;98279.19;;;7.83;100.00
11448;BME280;43755;49.736;8.734;2023-05-24T01:41:58;98287.19;;;7.78;100.00
11448;BME280;43755;49.736;8.734;2023-05-24T01:44:12;98281.19;;;7.73;100.00
11448;BME280;43755;49.736;8.734;2023-05-24T01:46:20;98284.84;;;7.68;100.00
11448;BME280;43755;49.736;8.734;2023-05-24T01:48:29;98285.03;;;7.62;100.00
11448;BME280;43755;49.736;8.734;2023-05-24T01:50:37;98280.72;;;7.59;100.00
11448;BME280;43755;49.736;8.734;2023-05-24T01:52:41;98283.44;;;7.55;100.00
11448;BME280;43755;49.736;8.734;2023-05-24T01:54:47;98280.00;;;7.53;100.00
11448;BME280;43755;49.736;8.734;2023-05-24T01:56:52;98279.13;;;7.54;100.00
11448;BME280;43755;49.736;8.734;2023-05-24T01:58:55;98280.78;;;7.56;100.00
11448;BME280;43755;49.736;8.734;2023-05-24T02:01:00;98278.09;;;7.59;100.00
11448;BME280;43755;49.736;8.734;2023-05-24T02:03:02;98281.63;;;7.58;100.00
11448;BME280;43755;49.736;8.734;2023-05-24T02:05:05;98285.97;;;7.59;100.00
11448;BME280;43755;49.736;8.734;2023-05-24T02:07:06;98286.91;;;7.57;100.00
11448;BME280;43755;49.736;8.734;2023-05-24T02:09:08;98288.31;;;7.70;100.00
11448;BME280;43755;49.736;8.734;2023-05-24T02:11:09;98289.22;;;7.69;100.00
11448;BME280;43755;49.736;8.734;2023-05-24T02:13:11;98280.50;;;7.67;100.00
11448;BME280;43755;49.736;8.734;2023-05-24T02:15:12;98288.28;;;7.71;100.00
11448;BME280;43755;49.736;8.734;2023-05-24T02:17:16;98294.56;;;7.66;100.00
11448;BME280;43755;49.736;8.734;2023-05-24T02:19:17;98292.84;;;7.65;100.00
11448;BME280;43755;49.736;8.734;2023-05-24T02:21:18;98290.97;;;7.70;100.00
11448;BME280;43755;49.736;8.734;2023-05-24T02:23:20;98295.50;;;7.65;100.00
11448;BME280;43755;49.736;8.734;2023-05-24T02:25:21;98296.50;;;7.59;100.00
11448;BME280;43755;49.736;8.734;2023-05-24T02:27:23;98290.25;;;7.63;100.00
11448;BME280;43755;49.736;8.734;2023-05-24T02:29:24;98295.50;;;7.65;100.00
11448;BME280;43755;49.736;8.734;2023-05-24T02:31:26;98298.94;;;7.67;100.00
11448;BME280;43755;49.736;8.734;2023-05-24T02:33:30;98292.84;;;7.65;100.00
11448;BME280;43755;49.736;8.734;2023-05-24T02:35:31;98295.41;;;7.66;100.00
11448;BME280;43755;49.736;8.734;2023-05-24T02:37:33;98284.13;;;7.63;100.00
11448;BME280;43755;49.736;8.734;2023-05-24T02:39:34;98282.25;;;7.66;100.00
11448;BME280;43755;49.736;8.734;2023-05-24T02:41:36;98283.94;;;7.70;100.00
11448;BME280;43755;49.736;8.734;2023-05-24T02:43:37;98283.13;;;7.67;100.00
11448;BME280;43755;49.736;8.734;2023-05-24T02:45:39;98288.28;;;7.71;100.00
11448;BME280;43755;49.736;8.734;2023-05-24T02:47:40;98286.59;;;7.69;100.00
11448;BME280;43755;49.736;8.734;2023-05-24T02:49:43;98291.69;;;7.75;100.00
11448;BME280;43755;49.736;8.734;2023-05-24T02:51:44;98287.19;;;7.78;100.00
11448;BME280;43755;49.736;8.734;2023-05-24T02:53:45;98295.19;;;7.75;100.00
11448;BME280;43755;49.736;8.734;2023-05-24T02:55:47;98303.09;;;7.75;100.00
11448;BME280;43755;49.736;8.734;2023-05-24T02:57:50;98295.31;;;7.71;100.00
11448;BME280;43755;49.736;8.734;2023-05-24T02:59:51;98299.63;;;7.73;100.00
11448;BME280;43755;49.736;8.734;2023-05-24T03:01:53;98299.63;;;7.73;100.00
11448;BME280;43755;49.736;8.734;2023-05-24T03:03:55;98292.16;;;7.58;100.00
11448;BME280;43755;49.736;8.734;2023-05-24T03:05:57;98291.13;;;7.64;100.00
11448;BME280;43755;49.736;8.734;2023-05-24T03:07:59;98298.84;;;7.70;100.00
11448;BME280;43755;49.736;8.734;2023-05-24T03:10:00;98302.28;;;7.72;100.00
11448;BME280;43755;49.736;8.734;2023-05-24T03:12:02;98296.38;;;7.64;100.00
11448;BME280;43755;49.736;8.734;2023-05-24T03:14:03;98295.56;;;7.62;100.00
11448;BME280;43755;49.736;8.734;2023-05-24T03:16:08;98298.16;;;7.63;100.00
11448;BME280;43755;49.736;8.734;2023-05-24T03:18:10;98291.19;;;7.61;100.00
11448;BME280;43755;49.736;8.734;2023-05-24T03:20:11;98288.50;;;7.64;100.00
11448;BME280;43755;49.736;8.734;2023-05-24T03:22:14;98286.47;;;7.73;100.00
11448;BME280;43755;49.736;8.734;2023-05-24T03:24:15;98287.38;;;7.72;100.00
11448;BME280;43755;49.736;8.734;2023-05-24T03:26:17;98284.88;;;7.66;100.00
11448;BME280;43755;49.736;8.734;2023-05-24T03:28:19;98280.50;;;7.67;100.00
11448;BME280;43755;49.736;8.734;2023-05-24T03:30:21;98290.97;;;7.70;100.00
11448;BME280;43755;49.736;8.734;2023-05-24T03:32:23;98290.09;;;7.69;100.00
11448;BME280;43755;49.736;8.734;2023-05-24T03:34:24;98295.00;;;7.83;100.00
11448;BME280;43755;49.736;8.734;2023-05-24T03:36:25;98282.63;;;7.85;100.00
11448;BME280;43755;49.736;8.734;2023-05-24T03:38:29;98290.47;;;7.88;100.00
11448;BME280;43755;49.736;8.734;2023-05-24T03:40:30;98280.09;;;7.82;100.00
11448;BME280;43755;49.736;8.734;2023-05-24T03:42:33;98288.06;;;7.79;100.00
11448;BME280;43755;49.736;8.734;2023-05-24T03:44:35;98290.78;;;7.76;100.00
11448;BME280;43755;49.736;8.734;2023-05-24T03:46:36;98283.81;;;7.73;100.00
11448;BME280;43755;49.736;8.734;2023-05-24T03:48:37;98286.03;;;7.56;100.00
11448;BME280;43755;49.736;8.734;2023-05-24T03:50:39;98286.47;;;7.41;100.00
11448;BME280;43755;49.736;8.734;2023-05-24T03:52:41;98290.00;;;7.40;100.00
11448;BME280;43755;49.736;8.734;2023-05-24T03:54:43;98281.97;;;7.45;100.00
11448;BME280;43755;49.736;8.734;2023-05-24T03:56:45;98284.84;;;7.35;100.00
11448;BME280;43755;49.736;8.734;2023-05-24T03:58:47;98281.09;;;7.44;100.00
11448;BME280;43755;49.736;8.734;2023-05-24T04:00:48;98279.28;;;7.48;100.00
11448;BME280;43755;49.736;8.734;2023-05-24T04:02:50;98295.09;;;7.46;100.00
11448;BME280;43755;49.736;8.734;2023-05-24T04:04:52;98289.19;;;7.36;100.00
11448;BME280;43755;49.736;8.734;2023-05-24T04:06:53;98289.84;;;7.46;100.00
11448;BME280;43755;49.736;8.734;2023-05-24T04:08:55;98286.47;;;7.41;100.00
11448;BME280;43755;49.736;8.734;2023-05-24T04:10:58;98287.31;;;7.42;100.00
11448;BME280;43755;49.736;8.734;2023-05-24T04:12:59;98288.19;;;7.42;100.00
11448;BME280;43755;49.736;8.734;2023-05-24T04:15:01;98285.28;;;7.53;100.00
11448;BME280;43755;49.736;8.734;2023-05-24T04:17:03;98295.56;;;7.62;100.00
11448;BME280;43755;49.736;8.734;2023-05-24T04:19:05;98296.25;;;7.68;100.00
11448;BME280;43755;49.736;8.734;2023-05-24T04:21:07;98296.97;;;7.75;100.00
11448;BME280;43755;49.736;8.734;2023-05-24T04:23:08;98302.09;;;7.79;100.00
11448;BME280;43755;49.736;8.734;2023-05-24T04:25:10;98296.78;;;7.82;100.00
11448;BME280;43755;49.736;8.734;2023-05-24T04:27:12;98291.91;;;7.66;100.00
11448;BME280;43755;49.736;8.734;2023-05-24T04:29:14;98294.63;;;7.64;100.00
11448;BME280;43755;49.736;8.734;2023-05-24T04:31:15;98300.53;;;7.72;100.00
11448;BME280;43755;49.736;8.734;2023-05-24T04:33:17;98302.94;;;7.81;100.00
11448;BME280;43755;49.736;8.734;2023-05-24T04:35:18;98302.34;;;7.70;100.00
11448;BME280;43755;49.736;8.734;2023-05-24T04:37:20;98302.28;;;7.72;100.00
11448;BME280;43755;49.736;8.734;2023-05-24T04:39:21;98307.94;;;7.91;100.00
11448;BME280;43755;49.736;8.734;2023-05-24T04:41:23;98297.41;;;7.91;100.00
11448;BME280;43755;49.736;8.734;2023-05-24T04:43:27;98307.44;;;8.09;100.00
11448;BME280;43755;49.736;8.734;2023-05-24T04:45:29;98298.97;;;8.30;100.00
11448;BME280;43755;49.736;8.734;2023-05-24T04:47:32;98300.59;;;8.34;100.00
11448;BME280;43755;49.736;8.734;2023-05-24T04:49:33;98298.78;;;8.36;100.00
11448;BME280;43755;49.736;8.734;2023-05-24T04:51:35;98300.31;;;8.43;100.00
11448;BME280;43755;49.736;8.734;2023-05-24T04:53:37;98297.75;;;8.42;100.00
11448;BME280;43755;49.736;8.734;2023-05-24T04:55:40;98301.31;;;8.39;100.00
11448;BME280;43755;49.736;8.734;2023-05-24T04:57:41;98297.19;;;8.29;100.00
11448;BME280;43755;49.736;8.734;2023-05-24T04:59:44;98297.44;;;8.52;100.00
11448;BME280;43755;49.736;8.734;2023-05-24T05:01:46;98289.75;;;8.73;100.00
11448;BME280;43755;49.736;8.734;2023-05-24T05:03:47;98302.94;;;8.73;100.00
11448;BME280;43755;49.736;8.734;2023-05-24T05:05:48;98306.56;;;8.70;100.00
11448;BME280;43755;49.736;8.734;2023-05-24T05:07:50;98310.66;;;8.79;100.00
11448;BME280;43755;49.736;8.734;2023-05-24T05:09:52;98316.34;;;8.94;100.00
11448;BME280;43755;49.736;8.734;2023-05-24T05:11:53;98318.59;;;8.79;100.00
11448;BME280;43755;49.736;8.734;2023-05-24T05:13:54;98318.16;;;8.65;100.00
11448;BME280;43755;49.736;8.734;2023-05-24T05:15:57;98325.91;;;8.40;100.00
11448;BME280;43755;49.736;8.734;2023-05-24T05:17:59;98331.34;;;8.35;100.00
11448;BME280;43755;49.736;8.734;2023-05-24T05:20:00;98330.97;;;8.15;100.00
11448;BME280;43755;49.736;8.734;2023-05-24T05:22:01;98324.16;;;8.40;100.00
11448;BME280;43755;49.736;8.734;2023-05-24T05:24:04;98332.06;;;8.40;100.00
11448;BME280;43755;49.736;8.734;2023-05-24T05:26:05;98328.72;;;8.34;100.00
11448;BME280;43755;49.736;8.734;2023-05-24T05:28:07;98333.38;;;8.55;100.00
11448;BME280;43755;49.736;8.734;2023-05-24T05:30:09;98327.28;;;8.82;100.00
11448;BME280;43755;49.736;8.734;2023-05-24T05:32:12;98329.63;;;9.19;100.00
11448;BME280;43755;49.736;8.734;2023-05-24T05:34:13;98329.34;;;9.28;100.00
11448;BME280;43755;49.736;8.734;2023-05-24T05:36:15;98339.63;;;9.10;100.00
11448;BME280;43755;49.736;8.734;2023-05-24T05:38:17;98342.03;;;8.89;100.00
11448;BME280;43755;49.736;8.734;2023-05-24T05:40:18;98335.63;;;8.96;100.00
11448;BME280;43755;49.736;8.734;2023-05-24T05:42:19;98343.66;;;8.64;100.00
11448;BME280;43755;49.736;8.734;2023-05-24T05:44:21;98339.38;;;8.60;100.00
11448;BME280;43755;49.736;8.734;2023-05-24T05:46:22;98336.16;;;8.50;100.00
11448;BME280;43755;49.736;8.734;2023-05-24T05:48:25;98340.53;;;8.51;100.00
11448;BME280;43755;49.736;8.734;2023-05-24T05:50:26;98336.13;;;8.52;100.00
11448;BME280;43755;49.736;8.734;2023-05-24T05:52:28;98336.66;;;8.63;100.00
11448;BME280;43755;49.736;8.734;2023-05-24T05:54:29;98349.50;;;8.74;100.00
11448;BME280;43755;49.736;8.734;2023-05-24T05:56:31;98339.25;;;8.94;100.00
11448;BME280;43755;49.736;8.734;2023-05-24T05:58:32;98346.81;;;9.04;100.00
11448;BME280;43755;49.736;8.734;2023-05-24T06:00:33;98346.63;;;8.83;100.00
11448;BME280;43755;49.736;8.734;2023-05-24T06:02:35;98342.22;;;8.83;100.00
11448;BME280;43755;49.736;8.734;2023-05-24T06:04:38;98350.06;;;8.55;100.00
11448;BME280;43755;49.736;8.734;2023-05-24T06:06:39;98339.94;;;8.71;100.00
11448;BME280;43755;49.736;8.734;2023-05-24T06:08:40;98342.16;;;8.55;100.00
11448;BME280;43755;49.736;8.734;2023-05-24T06:10:42;98349.44;;;8.77;100.00
11448;BME280;43755;49.736;8.734;2023-05-24T06:12:43;98341.38;;;8.81;100.00
11448;BME280;43755;49.736;8.734;2023-05-24T06:14:44;98343.81;;;8.89;100.00
11448;BME280;43755;49.736;8.734;2023-05-24T06:16:47;98346.50;;;8.86;100.00
11448;BME280;43755;49.736;8.734;2023-05-24T06:18:48;98353.53;;;8.57;100.00
11448;BME280;43755;49.736;8.734;2023-05-24T06:20:51;98353.69;;;8.51;100.00
11448;BME280;43755;49.736;8.734;2023-05-24T06:22:53;98345.25;;;8.70;100.00
11448;BME280;43755;49.736;8.734;2023-05-24T06:24:54;98334.53;;;8.76;100.00
11448;BME280;43755;49.736;8.734;2023-05-24T06:26:56;98340.19;;;8.91;100.00
11448;BME280;43755;49.736;8.734;2023-05-24T06:28:57;98344.38;;;8.98;100.00
11448;BME280;43755;49.736;8.734;2023-05-24T06:30:59;98356.16;;;9.15;100.00
11448;BME280;43755;49.736;8.734;2023-05-24T06:33:00;98357.00;;;8.89;100.00
11448;BME280;43755;49.736;8.734;2023-05-24T06:35:02;98353.75;;;8.79;100.00
11448;BME280;43755;49.736;8.734;2023-05-24T06:37:05;98353.31;;;8.65;100.00
11448;BME280;43755;49.736;8.734;2023-05-24T06:39:09;98355.78;;;8.71;100.00
11448;BME280;43755;49.736;8.734;2023-05-24T06:41:10;98363.94;;;8.91;100.00
11448;BME280;43755;49.736;8.734;2023-05-24T06:43:12;98358.81;;;8.87;100.00
11448;BME280;43755;49.736;8.734;2023-05-24T06:45:13;98350.47;;;9.00;100.00
11448;BME280;43755;49.736;8.734;2023-05-24T06:47:15;98352.47;;;9.20;100.00
11448;BME280;43755;49.736;8.734;2023-05-24T06:49:16;98366.91;;;9.09;100.00
11448;BME280;43755;49.736;8.734;2023-05-24T06:51:18;98358.84;;;9.13;100.00
11448;BME280;43755;49.736;8.734;2023-05-24T06:53:20;98359.25;;;9.29;100.00
11448;BME280;43755;49.736;8.734;2023-05-24T06:55:22;98356.09;;;9.44;98.63
11448;BME280;43755;49.736;8.734;2023-05-24T06:57:23;98372.72;;;9.20;97.21
11448;BME280;43755;49.736;8.734;2023-05-24T06:59:26;98367.25;;;9.26;100.00
11448;BME280;43755;49.736;8.734;2023-05-24T07:01:28;98362.03;;;9.51;100.00
11448;BME280;43755;49.736;8.734;2023-05-24T07:03:29;98370.75;;;9.26;96.95
11448;BME280;43755;49.736;8.734;2023-05-24T07:05:31;98372.84;;;9.43;100.00
11448;BME280;43755;49.736;8.734;2023-05-24T07:07:32;98378.91;;;9.47;100.00
11448;BME280;43755;49.736;8.734;2023-05-24T07:09:35;98362.41;;;9.40;99.29
11448;BME280;43755;49.736;8.734;2023-05-24T07:11:36;98374.63;;;9.15;100.00
11448;BME280;43755;49.736;8.734;2023-05-24T07:13:38;98372.63;;;8.95;100.00
11448;BME280;43755;49.736;8.734;2023-05-24T07:15:40;98367.22;;;8.99;100.00
11448;BME280;43755;49.736;8.734;2023-05-24T07:17:42;98374.59;;;9.16;100.00
11448;BME280;43755;49.736;8.734;2023-05-24T07:19:43;98367.03;;;9.06;100.00
11448;BME280;43755;49.736;8.734;2023-05-24T07:21:44;98369.41;;;9.13;100.00
11448;BME280;43755;49.736;8.734;2023-05-24T07:23:46;98367.56;;;9.43;100.00
11448;BME280;43755;49.736;8.734;2023-05-24T07:25:49;98369.41;;;9.67;100.00
11448;BME280;43755;49.736;8.734;2023-05-24T07:27:50;98366.03;;;9.64;95.49
11448;BME280;43755;49.736;8.734;2023-05-24T07:29:51;98361.09;;;9.53;93.48
11448;BME280;43755;49.736;8.734;2023-05-24T07:31:54;98360.22;;;9.53;94.82
11448;BME280;43755;49.736;8.734;2023-05-24T07:33:57;98362.34;;;9.68;93.43
11448;BME280;43755;49.736;8.734;2023-05-24T07:35:58;98370.00;;;9.77;91.79
11448;BME280;43755;49.736;8.734;2023-05-24T07:37:59;98366.28;;;9.82;96.52
11448;BME280;43755;49.736;8.734;2023-05-24T07:40:01;98362.28;;;9.96;96.06
11448;BME280;43755;49.736;8.734;2023-05-24T07:42:06;98367.88;;;10.13;95.90
11448;BME280;43755;49.736;8.734;2023-05-24T07:44:07;98365.69;;;9.99;94.41
11448;BME280;43755;49.736;8.734;2023-05-24T07:46:09;98373.97;;;10.13;89.75
11448;BME280;43755;49.736;8.734;2023-05-24T07:48:10;98375.84;;;10.11;93.67
11448;BME280;43755;49.736;8.734;2023-05-24T07:50:11;98370.75;;;10.05;87.41
11448;BME280;43755;49.736;8.734;2023-05-24T07:52:13;98376.44;;;9.95;87.66
11448;BME280;43755;49.736;8.734;2023-05-24T07:54:14;98376.56;;;9.90;88.46
11448;BME280;43755;49.736;8.734;2023-05-24T07:56:16;98380.59;;;9.75;91.19
11448;BME280;43755;49.736;8.734;2023-05-24T07:58:19;98377.03;;;9.76;91.24
11448;BME280;43755;49.736;8.734;2023-05-24T08:00:20;98386.94;;;9.70;92.72
11448;BME280;43755;49.736;8.734;2023-05-24T08:02:22;98391.53;;;9.65;90.87
11448;BME280;43755;49.736;8.734;2023-05-24T08:04:23;98397.56;;;9.68;91.40
11448;BME280;43755;49.736;8.734;2023-05-24T08:06:25;98388.38;;;9.80;91.71
11448;BME280;43755;49.736;8.734;2023-05-24T08:08:26;98387.00;;;9.95;93.93
11448;BME280;43755;49.736;8.734;2023-05-24T08:10:27;98383.66;;;10.14;85.72
11448;BME280;43755;49.736;8.734;2023-05-24T08:12:29;98389.84;;;10.40;83.30
11448;BME280;43755;49.736;8.734;2023-05-24T08:14:32;98389.66;;;10.44;83.46
11448;BME280;43755;49.736;8.734;2023-05-24T08:16:34;98384.78;;;10.57;87.81
11448;BME280;43755;49.736;8.734;2023-05-24T08:18:35;98394.19;;;10.65;84.68
11448;BME280;43755;49.736;8.734;2023-05-24T08:20:37;98409.25;;;10.87;86.61
11448;BME280;43755;49.736;8.734;2023-05-24T08:22:39;98400.69;;;10.80;77.31
11448;BME280;43755;49.736;8.734;2023-05-24T08:24:41;98410.72;;;10.95;79.50
11448;BME280;43755;49.736;8.734;2023-05-24T08:26:42;98412.03;;;11.07;75.20
11448;BME280;43755;49.736;8.734;2023-05-24T08:28:44;98411.44;;;11.22;73.51
11448;BME280;43755;49.736;8.734;2023-05-24T08:30:47;98400.91;;;10.97;71.83
11448;BME280;43755;49.736;8.734;2023-05-24T08:32:49;98406.66;;;11.08;69.01
11448;BME280;43755;49.736;8.734;2023-05-24T08:34:51;98393.63;;;11.26;70.20
11448;BME280;43755;49.736;8.734;2023-05-24T08:36:52;98406.97;;;11.01;71.99
11448;BME280;43755;49.736;8.734;2023-05-24T08:38:54;98397.97;;;11.05;75.91
11448;BME280;43755;49.736;8.734;2023-05-24T08:40:55;98404.00;;;11.08;80.87
11448;BME280;43755;49.736;8.734;2023-05-24T08:42:59;98403.97;;;11.10;72.97
11448;BME280;43755;49.736;8.734;2023-05-24T08:45:03;98409.22;;;10.88;71.78
11448;BME280;43755;49.736;8.734;2023-05-24T08:47:07;98403.72;;;11.16;74.35
11448;BME280;43755;49.736;8.734;2023-05-24T08:49:09;98408.53;;;11.06;64.87
11448;BME280;43755;49.736;8.734;2023-05-24T08:51:13;98405.91;;;11.28;67.13
11448;BME280;43755;49.736;8.734;2023-05-24T08:53:15;98405.47;;;11.39;61.30
11448;BME280;43755;49.736;8.734;2023-05-24T08:55:17;98403.06;;;11.33;62.98
11448;BME280;43755;49.736;8.734;2023-05-24T08:57:20;98395.78;;;11.38;69.47
11448;BME280;43755;49.736;8.734;2023-05-24T08:59:23;98397.88;;;11.75;68.34
11448;BME280;43755;49.736;8.734;2023-05-24T09:01:26;98390.16;;;12.11;70.56
11448;BME280;43755;49.736;8.734;2023-05-24T09:03:30;98386.69;;;12.09;72.00
11448;BME280;43755;49.736;8.734;2023-05-24T09:05:32;98393.88;;;11.63;72.24
11448;BME280;43755;49.736;8.734;2023-05-24T09:07:35;98404.94;;;11.31;71.73
11448;BME280;43755;49.736;8.734;2023-05-24T09:09:38;98404.56;;;11.40;70.48
11448;BME280;43755;49.736;8.734;2023-05-24T09:11:44;98420.34;;;11.20;74.80
11448;BME280;43755;49.736;8.734;2023-05-24T09:13:47;98418.16;;;11.07;72.36
11448;BME280;43755;49.736;8.734;2023-05-24T09:15:48;98410.75;;;11.39;76.98
11448;BME280;43755;49.736;8.734;2023-05-24T09:17:50;98416.84;;;11.86;73.34
11448;BME280;43755;49.736;8.734;2023-05-24T09:19:53;98423.28;;;11.57;69.44
11448;BME280;43755;49.736;8.734;2023-05-24T09:21:54;98411.88;;;11.55;72.47
11448;BME280;43755;49.736;8.734;2023-05-24T09:23:56;98413.66;;;11.78;70.28
11448;BME280;43755;49.736;8.734;2023-05-24T09:26:05;98412.13;;;11.27;70.85
11448;BME280;43755;49.736;8.734;2023-05-24T09:28:08;98406.44;;;11.15;77.98
11448;BME280;43755;49.736;8.734;2023-05-24T09:30:10;98413.09;;;10.78;76.68
11448;BME280;43755;49.736;8.734;2023-05-24T09:32:12;98409.03;;;10.70;79.25
11448;BME280;43755;49.736;8.734;2023-05-24T09:34:14;98405.75;;;10.63;77.63
11448;BME280;43755;49.736;8.734;2023-05-24T09:36:17;98399.78;;;10.81;77.13
11448;BME280;43755;49.736;8.734;2023-05-24T09:38:18;98401.31;;;10.87;79.99
11448;BME280;43755;49.736;8.734;2023-05-24T09:40:21;98405.66;;;11.34;82.00
11448;BME280;43755;49.736;8.734;2023-05-24T09:42:23;98403.03;;;11.11;77.17
11448;BME280;43755;49.736;8.734;2023-05-24T09:44:27;98402.59;;;11.00;74.83
11448;BME280;43755;49.736;8.734;2023-05-24T09:46:29;98412.47;;;11.18;73.21
11448;BME280;43755;49.736;8.734;2023-05-24T09:48:35;98408.63;;;11.03;70.08
11448;BME280;43755;49.736;8.734;2023-05-24T09:50:36;98398.44;;;10.93;72.62
11448;BME280;43755;49.736;8.734;2023-05-24T09:52:39;98389.75;;;11.34;77.48
11448;BME280;43755;49.736;8.734;2023-05-24T09:54:41;98402.22;;;11.54;70.38
11448;BME280;43755;49.736;8.734;2023-05-24T09:56:45;98397.72;;;11.56;67.18
11448;BME280;43755;49.736;8.734;2023-05-24T09:58:47;98397.34;;;11.43;66.37
11448;BME280;43755;49.736;8.734;2023-05-24T10:00:48;98408.28;;;11.13;65.80
11448;BME280;43755;49.736;8.734;2023-05-24T10:03:00;98409.50;;;11.04;64.79
11448;BME280;43755;49.736;8.734;2023-05-24T10:05:03;98405.19;;;11.01;66.85
11448;BME280;43755;49.736;8.734;2023-05-24T10:07:05;98414.38;;;11.15;68.99
11448;BME280;43755;49.736;8.734;2023-05-24T10:09:08;98405.06;;;11.04;70.37
11448;BME280;43755;49.736;8.734;2023-05-24T10:11:10;98395.72;;;11.18;71.69
11448;BME280;43755;49.736;8.734;2023-05-24T10:13:11;98395.88;;;11.36;70.91
11448;BME280;43755;49.736;8.734;2023-05-24T10:15:15;98404.97;;;11.51;72.27
11448;BME280;43755;49.736;8.734;2023-05-24T10:17:17;98394.34;;;11.53;68.42
11448;BME280;43755;49.736;8.734;2023-05-24T10:19:19;98393.66;;;11.47;66.30
11448;BME280;43755;49.736;8.734;2023-05-24T10:21:22;98396.97;;;11.53;70.34
11448;BME280;43755;49.736;8.734;2023-05-24T10:23:29;98396.06;;;11.75;69.34
11448;BME280;43755;49.736;8.734;2023-05-24T10:25:34;98384.19;;;12.06;65.79
11448;BME280;43755;49.736;8.734;2023-05-24T10:27:36;98400.34;;;12.20;63.92
11448;BME280;43755;49.736;8.734;2023-05-24T10:29:43;98388.34;;;12.31;65.00
11448;BME280;43755;49.736;8.734;2023-05-24T10:31:51;98383.38;;;12.44;61.03
11448;BME280;43755;49.736;8.734;2023-05-24T10:33:55;98387.47;;;12.90;62.75
11448;BME280;43755;49.736;8.734;2023-05-24T10:35:58;98388.69;;;12.44;60.85
11448;BME280;43755;49.736;8.734;2023-05-24T10:38:04;98380.66;;;12.85;65.36
11448;BME280;43755;49.736;8.734;2023-05-24T10:40:06;98377.63;;;13.13;63.92
11448;BME280;43755;49.736;8.734;2023-05-24T10:42:11;98375.50;;;13.38;58.01
11448;BME280;43755;49.736;8.734;2023-05-24T10:44:17;98369.69;;;13.11;57.11
11448;BME280;43755;49.736;8.734;2023-05-24T10:46:19;98378.13;;;13.21;61.44
11448;BME280;43755;49.736;8.734;2023-05-24T10:48:32;98378.50;;;13.85;62.10